sensor_id;sensor_type;location;lat;lon;timestamp;pressure;altitude;pressure_sealevel;temperature;humidity
61554;BME280;47425;51.976;5.326;2023-06-22T00:02:27;101836.03;;;27.15;40.93
61554;BME280;47425;51.976;5.326;2023-06-22T00:04:54;101841.41;;;27.15;40.62
61554;BME280;47425;51.976;5.326;2023-06-22T00:07:21;101842.25;;;27.15;40.90
61554;BME280;47425;51.976;5.326;2023-06-22T00:09:50;101830.13;;;27.09;40.89
61554;BME280;47425;51.976;5.326;2023-06-22T00:12:16;101833.22;;;27.16;40.54
61554;BME280;47425;51.976;5.326;2023-06-22T00:14:43;101826.38;;;27.12;40.98
61554;BME280;47425;51.976;5.326;2023-06-22T00:17:10;101825.41;;;27.13;41.06
61554;BME280;47425;51.976;5.326;2023-06-22T00:19:39;101822.91;;;27.10;41.18
61554;BME280;47425;51.976;5.326;2023-06-22T00:22:08;101826.38;;;27.12;41.17
61554;BME280;47425;51.976;5.326;2023-06-22T00:24:37;101820.22;;;27.10;41.31
61554;BME280;47425;51.976;5.326;2023-06-22T00:27:04;101816.81;;;27.08;41.45
61554;BME280;47425;51.976;5.326;2023-06-22T00:29:39;101818.41;;;27.10;40.81
61554;BME280;47425;51.976;5.326;2023-06-22T00:32:07;101815.84;;;27.09;40.96
61554;BME280;47425;51.976;5.326;2023-06-22T00:34:34;101814.00;;;27.09;41.14
61554;BME280;47425;51.976;5.326;2023-06-22T00:37:02;101826.59;;;27.09;40.64
61554;BME280;47425;51.976;5.326;2023-06-22T00:39:29;101817.06;;;27.05;41.03
61554;BME280;47425;51.976;5.326;2023-06-22T00:41:59;101815.84;;;27.09;41.05
61554;BME280;47425;51.976;5.326;2023-06-22T00:44:28;101812.28;;;27.08;41.13
61554;BME280;47425;51.976;5.326;2023-06-22T00:46:56;101807.91;;;27.07;40.98
61554;BME280;47425;51.976;5.326;2023-06-22T00:49:23;101809.00;;;27.05;40.81
61554;BME280;47425;51.976;5.326;2023-06-22T00:51:50;101810.81;;;27.04;41.02
61554;BME280;47425;51.976;5.326;2023-06-22T00:54:18;101811.78;;;27.03;40.88
61554;BME280;47425;51.976;5.326;2023-06-22T00:56:51;101807.50;;;27.01;40.94
61554;BME280;47425;51.976;5.326;2023-06-22T00:59:23;101811.78;;;27.03;41.08
61554;BME280;47425;51.976;5.326;2023-06-22T01:01:54;101810.19;;;27.01;41.64
61554;BME280;47425;51.976;5.326;2023-06-22T01:04:34;101812.97;;;26.99;40.89
61554;BME280;47425;51.976;5.326;2023-06-22T01:07:13;101812.97;;;26.99;41.16
61554;BME280;47425;51.976;5.326;2023-06-22T01:09:52;101806.63;;;27.00;40.89
61554;BME280;47425;51.976;5.326;2023-06-22T01:12:25;101802.13;;;27.01;41.28
61554;BME280;47425;51.976;5.326;2023-06-22T01:14:58;101802.34;;;26.98;41.64
61554;BME280;47425;51.976;5.326;2023-06-22T01:17:32;101808.59;;;26.98;41.20
61554;BME280;47425;51.976;5.326;2023-06-22T01:20:02;101808.59;;;26.98;40.81
61554;BME280;47425;51.976;5.326;2023-06-22T01:23:02;101804.19;;;26.97;41.30
61554;BME280;47425;51.976;5.326;2023-06-22T01:25:36;101807.84;;;26.96;41.35
61554;BME280;47425;51.976;5.326;2023-06-22T01:28:23;101808.94;;;26.93;41.46
61554;BME280;47425;51.976;5.326;2023-06-22T01:30:53;101804.44;;;26.94;41.36
61554;BME280;47425;51.976;5.326;2023-06-22T01:33:39;101799.91;;;26.94;41.42
61554;BME280;47425;51.976;5.326;2023-06-22T01:36:17;101798.28;;;26.92;41.64
61554;BME280;47425;51.976;5.326;2023-06-22T01:38:47;101800.00;;;26.93;41.21
61554;BME280;47425;51.976;5.326;2023-06-22T01:41:16;101802.91;;;26.90;41.70
61554;BME280;47425;51.976;5.326;2023-06-22T01:43:47;101793.03;;;26.90;41.10
61554;BME280;47425;51.976;5.326;2023-06-22T01:46:15;101795.25;;;26.96;41.06
61554;BME280;47425;51.976;5.326;2023-06-22T01:48:45;101806.47;;;26.90;41.16
61554;BME280;47425;51.976;5.326;2023-06-22T01:51:12;101802.31;;;26.86;41.80
61554;BME280;47425;51.976;5.326;2023-06-22T01:53:40;101802.91;;;26.90;41.17
61554;BME280;47425;51.976;5.326;2023-06-22T01:56:09;101802.19;;;26.88;41.61
61554;BME280;47425;51.976;5.326;2023-06-22T01:58:45;101796.16;;;26.84;41.04
61554;BME280;47425;51.976;5.326;2023-06-22T02:01:19;101790.75;;;26.73;41.66
61554;BME280;47425;51.976;5.326;2023-06-22T02:03:50;101795.31;;;26.46;42.45
61554;BME280;47425;51.976;5.326;2023-06-22T02:06:24;101791.00;;;26.44;42.20
61554;BME280;47425;51.976;5.326;2023-06-22T02:08:57;101793.28;;;26.50;42.38
61554;BME280;47425;51.976;5.326;2023-06-22T02:11:28;101794.63;;;26.56;41.78
61554;BME280;47425;51.976;5.326;2023-06-22T02:13:58;101780.88;;;26.60;41.48
61554;BME280;47425;51.976;5.326;2023-06-22T02:16:26;101789.69;;;26.62;41.84
61554;BME280;47425;51.976;5.326;2023-06-22T02:19:00;101791.28;;;26.65;41.87
61554;BME280;47425;51.976;5.326;2023-06-22T02:21:33;101780.53;;;26.65;41.82
61554;BME280;47425;51.976;5.326;2023-06-22T02:24:02;101783.75;;;26.70;41.69
61554;BME280;47425;51.976;5.326;2023-06-22T02:26:30;101786.34;;;26.72;41.63
61554;BME280;47425;51.976;5.326;2023-06-22T02:28:59;101785.38;;;26.73;41.61
61554;BME280;47425;51.976;5.326;2023-06-22T02:31:48;101779.44;;;26.68;41.36
61554;BME280;47425;51.976;5.326;2023-06-22T02:34:16;101791.41;;;26.63;42.05
61554;BME280;47425;51.976;5.326;2023-06-22T02:36:45;101787.00;;;26.62;42.00
61554;BME280;47425;51.976;5.326;2023-06-22T02:39:17;101787.88;;;26.63;41.67
61554;BME280;47425;51.976;5.326;2023-06-22T02:41:45;101788.72;;;26.63;41.76
61554;BME280;47425;51.976;5.326;2023-06-22T02:44:11;101784.94;;;26.66;42.06
61554;BME280;47425;51.976;5.326;2023-06-22T02:46:40;101781.38;;;26.66;41.83
61554;BME280;47425;51.976;5.326;2023-06-22T02:49:11;101774.19;;;26.66;41.35
61554;BME280;47425;51.976;5.326;2023-06-22T02:51:47;101775.91;;;26.67;41.50
61554;BME280;47425;51.976;5.326;2023-06-22T02:54:18;101781.63;;;26.62;41.58
61554;BME280;47425;51.976;5.326;2023-06-22T02:56:48;101780.13;;;26.58;41.53
61554;BME280;47425;51.976;5.326;2023-06-22T02:59:16;101782.56;;;26.61;41.72
61554;BME280;47425;51.976;5.326;2023-06-22T03:01:50;101774.63;;;26.60;42.00
61554;BME280;47425;51.976;5.326;2023-06-22T03:04:25;101778.09;;;26.62;41.36
61554;BME280;47425;51.976;5.326;2023-06-22T03:06:52;101779.88;;;26.61;41.52
61554;BME280;47425;51.976;5.326;2023-06-22T03:09:25;101779.81;;;26.63;41.78
61554;BME280;47425;51.976;5.326;2023-06-22T03:11:58;101767.34;;;26.62;41.90
61554;BME280;47425;51.976;5.326;2023-06-22T03:14:34;101775.03;;;26.67;41.57
61554;BME280;47425;51.976;5.326;2023-06-22T03:17:04;101772.47;;;26.65;41.60
61554;BME280;47425;51.976;5.326;2023-06-22T03:19:32;101765.25;;;26.66;41.84
61554;BME280;47425;51.976;5.326;2023-06-22T03:22:00;101756.34;;;26.65;41.30
61554;BME280;47425;51.976;5.326;2023-06-22T03:24:29;101739.03;;;26.69;41.63
61554;BME280;47425;51.976;5.326;2023-06-22T03:27:01;101743.69;;;26.67;41.56
61554;BME280;47425;51.976;5.326;2023-06-22T03:29:33;101740.09;;;26.67;41.86
61554;BME280;47425;51.976;5.326;2023-06-22T03:32:00;101734.75;;;26.67;41.91
61554;BME280;47425;51.976;5.326;2023-06-22T03:34:26;101740.22;;;26.65;41.29
61554;BME280;47425;51.976;5.326;2023-06-22T03:36:56;101742.81;;;26.67;41.29
61554;BME280;47425;51.976;5.326;2023-06-22T03:39:22;101745.47;;;26.67;41.56
61554;BME280;47425;51.976;5.326;2023-06-22T03:41:51;101740.09;;;26.67;41.10
61554;BME280;47425;51.976;5.326;2023-06-22T03:44:19;101741.06;;;26.66;41.69
61554;BME280;47425;51.976;5.326;2023-06-22T03:46:47;101741.00;;;26.67;41.54
61554;BME280;47425;51.976;5.326;2023-06-22T03:49:14;101738.50;;;26.64;41.87
61554;BME280;47425;51.976;5.326;2023-06-22T03:51:44;101737.44;;;26.67;41.58
61554;BME280;47425;51.976;5.326;2023-06-22T03:54:13;101731.84;;;26.70;41.79
61554;BME280;47425;51.976;5.326;2023-06-22T03:56:39;101738.38;;;26.66;41.38
61554;BME280;47425;51.976;5.326;2023-06-22T03:59:06;101744.13;;;26.61;41.64
61554;BME280;47425;51.976;5.326;2023-06-22T04:01:33;101744.00;;;26.62;41.55
61554;BME280;47425;51.976;5.326;2023-06-22T04:04:01;101750.84;;;26.67;41.88
61554;BME280;47425;51.976;5.326;2023-06-22T04:06:31;101748.16;;;26.67;41.27
61554;BME280;47425;51.976;5.326;2023-06-22T04:09:01;101750.66;;;26.70;41.76
61554;BME280;47425;51.976;5.326;2023-06-22T04:11:29;101752.06;;;26.62;41.46
61554;BME280;47425;51.976;5.326;2023-06-22T04:13:58;101742.91;;;26.41;41.94
61554;BME280;47425;51.976;5.326;2023-06-22T04:16:24;101735.41;;;26.33;42.27
61554;BME280;47425;51.976;5.326;2023-06-22T04:18:51;101737.53;;;26.41;41.69
61554;BME280;47425;51.976;5.326;2023-06-22T04:21:19;101736.97;;;26.49;41.13
61554;BME280;47425;51.976;5.326;2023-06-22T04:23:47;101725.75;;;26.55;41.64
61554;BME280;47425;51.976;5.326;2023-06-22T04:26:15;101718.19;;;26.73;41.12
61554;BME280;47425;51.976;5.326;2023-06-22T04:28:44;101726.16;;;26.86;41.19
61554;BME280;47425;51.976;5.326;2023-06-22T04:31:20;101728.28;;;26.93;40.92
61554;BME280;47425;51.976;5.326;2023-06-22T04:33:47;101732.44;;;26.98;40.80
61554;BME280;47425;51.976;5.326;2023-06-22T04:36:13;101734.41;;;26.95;40.61
61554;BME280;47425;51.976;5.326;2023-06-22T04:38:41;101742.53;;;26.83;40.69
61554;BME280;47425;51.976;5.326;2023-06-22T04:41:10;101726.47;;;26.94;41.32
61554;BME280;47425;51.976;5.326;2023-06-22T04:43:39;101736.53;;;27.15;40.45
61554;BME280;47425;51.976;5.326;2023-06-22T04:46:07;101724.78;;;27.04;40.15
61554;BME280;47425;51.976;5.326;2023-06-22T04:48:35;101735.31;;;27.07;40.55
61554;BME280;47425;51.976;5.326;2023-06-22T04:51:02;101740.91;;;27.04;40.95
61554;BME280;47425;51.976;5.326;2023-06-22T04:53:30;101733.03;;;26.90;40.80
61554;BME280;47425;51.976;5.326;2023-06-22T04:55:58;101738.06;;;26.94;40.89
61554;BME280;47425;51.976;5.326;2023-06-22T04:58:25;101742.25;;;26.99;40.34
61554;BME280;47425;51.976;5.326;2023-06-22T05:00:54;101746.16;;;27.06;40.48
61554;BME280;47425;51.976;5.326;2023-06-22T05:03:28;101738.72;;;27.09;40.28
61554;BME280;47425;51.976;5.326;2023-06-22T05:05:59;101740.34;;;27.23;40.37
61554;BME280;47425;51.976;5.326;2023-06-22T05:08:25;101730.84;;;27.30;39.88
61554;BME280;47425;51.976;5.326;2023-06-22T05:10:56;101737.13;;;27.42;40.18
61554;BME280;47425;51.976;5.326;2023-06-22T05:13:23;101741.63;;;27.42;40.31
61554;BME280;47425;51.976;5.326;2023-06-22T05:15:53;101738.22;;;27.40;39.62
61554;BME280;47425;51.976;5.326;2023-06-22T05:18:29;101736.09;;;27.32;40.17
61554;BME280;47425;51.976;5.326;2023-06-22T05:20:59;101728.75;;;27.23;40.33
61554;BME280;47425;51.976;5.326;2023-06-22T05:23:25;101736.81;;;27.23;40.53
61554;BME280;47425;51.976;5.326;2023-06-22T05:25:53;101736.34;;;27.29;40.00
61554;BME280;47425;51.976;5.326;2023-06-22T05:28:22;101739.16;;;27.27;40.63
61554;BME280;47425;51.976;5.326;2023-06-22T05:30:49;101746.09;;;27.19;40.37
61554;BME280;47425;51.976;5.326;2023-06-22T05:33:17;101744.75;;;27.24;40.10
61554;BME280;47425;51.976;5.326;2023-06-22T05:35:45;101738.78;;;27.21;40.75
61554;BME280;47425;51.976;5.326;2023-06-22T05:38:12;101734.25;;;27.33;39.88
61554;BME280;47425;51.976;5.326;2023-06-22T05:40:40;101741.09;;;27.14;40.59
61554;BME280;47425;51.976;5.326;2023-06-22T05:43:11;101745.31;;;27.05;40.67
61554;BME280;47425;51.976;5.326;2023-06-22T05:45:38;101740.41;;;26.99;41.19
61554;BME280;47425;51.976;5.326;2023-06-22T05:48:05;101740.00;;;26.92;41.35
61554;BME280;47425;51.976;5.326;2023-06-22T05:50:33;101740.81;;;26.82;41.39
61554;BME280;47425;51.976;5.326;2023-06-22T05:53:06;101741.72;;;26.69;42.73
61554;BME280;47425;51.976;5.326;2023-06-22T05:55:37;101749.84;;;26.56;41.85
61554;BME280;47425;51.976;5.326;2023-06-22T05:58:04;101740.09;;;26.42;43.33
61554;BME280;47425;51.976;5.326;2023-06-22T06:00:32;101738.06;;;25.83;45.17
61554;BME280;47425;51.976;5.326;2023-06-22T06:02:58;101732.31;;;25.10;47.15
61554;BME280;47425;51.976;5.326;2023-06-22T06:05:28;101744.00;;;24.55;48.69
61554;BME280;47425;51.976;5.326;2023-06-22T06:07:55;101732.22;;;24.30;49.16
61554;BME280;47425;51.976;5.326;2023-06-22T06:10:24;101729.97;;;24.09;49.96
61554;BME280;47425;51.976;5.326;2023-06-22T06:12:51;101719.75;;;24.02;49.54
61554;BME280;47425;51.976;5.326;2023-06-22T06:15:18;101714.88;;;24.08;50.33
61554;BME280;47425;51.976;5.326;2023-06-22T06:17:47;101716.31;;;24.00;50.26
61554;BME280;47425;51.976;5.326;2023-06-22T06:20:20;101712.69;;;23.72;51.22
61554;BME280;47425;51.976;5.326;2023-06-22T06:22:48;101723.38;;;24.01;50.92
61554;BME280;47425;51.976;5.326;2023-06-22T06:25:16;101714.78;;;23.81;51.38
61554;BME280;47425;51.976;5.326;2023-06-22T06:27:46;101716.50;;;23.68;52.23
61554;BME280;47425;51.976;5.326;2023-06-22T06:30:14;101716.41;;;23.84;51.51
61554;BME280;47425;51.976;5.326;2023-06-22T06:32:43;101715.25;;;23.88;51.16
61554;BME280;47425;51.976;5.326;2023-06-22T06:35:13;101718.88;;;23.72;51.90
61554;BME280;47425;51.976;5.326;2023-06-22T06:37:40;101713.81;;;23.68;51.43
61554;BME280;47425;51.976;5.326;2023-06-22T06:40:08;101711.63;;;23.60;52.21
61554;BME280;47425;51.976;5.326;2023-06-22T06:42:36;101706.34;;;23.87;51.06
61554;BME280;47425;51.976;5.326;2023-06-22T06:45:09;101703.00;;;24.12;50.90
61554;BME280;47425;51.976;5.326;2023-06-22T06:47:36;101699.97;;;24.04;50.92
61554;BME280;47425;51.976;5.326;2023-06-22T06:50:04;101703.81;;;24.00;51.25
61554;BME280;47425;51.976;5.326;2023-06-22T06:52:33;101705.78;;;23.82;51.16
61554;BME280;47425;51.976;5.326;2023-06-22T06:55:00;101705.88;;;23.80;51.84
61554;BME280;47425;51.976;5.326;2023-06-22T06:57:29;101708.44;;;23.82;52.33
61554;BME280;47425;51.976;5.326;2023-06-22T06:59:56;101698.94;;;23.92;51.86
61554;BME280;47425;51.976;5.326;2023-06-22T07:02:25;101697.56;;;24.00;51.85
61554;BME280;47425;51.976;5.326;2023-06-22T07:04:56;101706.16;;;24.05;51.72
61554;BME280;47425;51.976;5.326;2023-06-22T07:07:23;101705.47;;;24.30;51.52
61554;BME280;47425;51.976;5.326;2023-06-22T07:09:50;101715.00;;;24.34;51.24
61554;BME280;47425;51.976;5.326;2023-06-22T07:12:21;101714.25;;;24.59;49.83
61554;BME280;47425;51.976;5.326;2023-06-22T07:14:48;101706.00;;;24.77;50.06
61554;BME280;47425;51.976;5.326;2023-06-22T07:17:15;101695.03;;;24.67;49.99
61554;BME280;47425;51.976;5.326;2023-06-22T07:19:43;101698.28;;;24.72;49.97
61554;BME280;47425;51.976;5.326;2023-06-22T07:22:12;101697.16;;;25.02;49.03
61554;BME280;47425;51.976;5.326;2023-06-22T07:24:42;101693.44;;;25.30;47.82
61554;BME280;47425;51.976;5.326;2023-06-22T07:27:09;101699.66;;;25.57;47.79
61554;BME280;47425;51.976;5.326;2023-06-22T07:29:42;101697.41;;;25.63;47.67
61554;BME280;47425;51.976;5.326;2023-06-22T07:32:10;101695.44;;;25.91;46.88
61554;BME280;47425;51.976;5.326;2023-06-22T07:34:39;101678.78;;;25.99;45.74
61554;BME280;47425;51.976;5.326;2023-06-22T07:37:08;101683.66;;;26.31;45.17
61554;BME280;47425;51.976;5.326;2023-06-22T07:39:36;101683.56;;;26.20;46.23
61554;BME280;47425;51.976;5.326;2023-06-22T07:42:03;101683.31;;;25.99;46.91
61554;BME280;47425;51.976;5.326;2023-06-22T07:44:30;101682.78;;;25.80;47.43
61554;BME280;47425;51.976;5.326;2023-06-22T07:46:57;101682.56;;;26.09;46.07
61554;BME280;47425;51.976;5.326;2023-06-22T07:49:31;101680.19;;;26.42;45.97
61554;BME280;47425;51.976;5.326;2023-06-22T07:51:57;101686.75;;;26.38;45.62
61554;BME280;47425;51.976;5.326;2023-06-22T07:54:27;101682.56;;;26.34;45.09
61554;BME280;47425;51.976;5.326;2023-06-22T07:56:55;101673.03;;;26.54;45.09
61554;BME280;47425;51.976;5.326;2023-06-22T07:59:24;101672.41;;;26.74;45.13
61554;BME280;47425;51.976;5.326;2023-06-22T08:01:57;101676.94;;;26.85;44.55
61554;BME280;47425;51.976;5.326;2023-06-22T08:04:26;101661.91;;;26.71;44.96
61554;BME280;47425;51.976;5.326;2023-06-22T08:06:55;101661.22;;;26.32;45.51
61554;BME280;47425;51.976;5.326;2023-06-22T08:09:24;101658.69;;;26.18;45.81
61554;BME280;47425;51.976;5.326;2023-06-22T08:11:52;101658.81;;;26.16;45.63
61554;BME280;47425;51.976;5.326;2023-06-22T08:14:19;101646.47;;;26.13;45.49
61554;BME280;47425;51.976;5.326;2023-06-22T08:16:47;101645.19;;;26.30;45.27
61554;BME280;47425;51.976;5.326;2023-06-22T08:19:14;101634.03;;;26.48;44.61
61554;BME280;47425;51.976;5.326;2023-06-22T08:21:43;101631.97;;;26.52;44.69
61554;BME280;47425;51.976;5.326;2023-06-22T08:24:12;101622.00;;;26.54;44.58
61554;BME280;47425;51.976;5.326;2023-06-22T08:26:39;101622.97;;;26.53;44.48
61554;BME280;47425;51.976;5.326;2023-06-22T08:29:07;101625.09;;;26.36;45.02
61554;BME280;47425;51.976;5.326;2023-06-22T08:31:34;101616.72;;;26.52;44.90
61554;BME280;47425;51.976;5.326;2023-06-22T08:34:02;101619.34;;;26.65;44.55
61554;BME280;47425;51.976;5.326;2023-06-22T08:36:29;101610.94;;;26.70;44.53
61554;BME280;47425;51.976;5.326;2023-06-22T08:38:58;101616.84;;;26.51;44.08
61554;BME280;47425;51.976;5.326;2023-06-22T08:41:28;101613.56;;;26.58;43.95
61554;BME280;47425;51.976;5.326;2023-06-22T08:43:56;101610.97;;;26.81;43.61
61554;BME280;47425;51.976;5.326;2023-06-22T08:46:24;101623.31;;;26.84;43.97
61554;BME280;47425;51.976;5.326;2023-06-22T08:48:55;101610.34;;;26.77;43.70
61554;BME280;47425;51.976;5.326;2023-06-22T08:51:23;101606.53;;;26.69;43.60
61554;BME280;47425;51.976;5.326;2023-06-22T08:53:52;101618.09;;;26.58;43.21
61554;BME280;47425;51.976;5.326;2023-06-22T08:56:18;101612.16;;;26.41;44.36
61554;BME280;47425;51.976;5.326;2023-06-22T08:58:45;101606.13;;;26.62;44.19
61554;BME280;47425;51.976;5.326;2023-06-22T09:01:14;101618.78;;;26.73;44.39
61554;BME280;47425;51.976;5.326;2023-06-22T09:03:44;101606.81;;;26.77;43.35
61554;BME280;47425;51.976;5.326;2023-06-22T09:06:19;101603.53;;;26.85;43.62
61554;BME280;47425;51.976;5.326;2023-06-22T09:08:46;101606.16;;;27.09;42.94
61554;BME280;47425;51.976;5.326;2023-06-22T09:11:14;101618.50;;;27.34;42.42
61554;BME280;47425;51.976;5.326;2023-06-22T09:13:40;101613.16;;;27.45;41.22
61554;BME280;47425;51.976;5.326;2023-06-22T09:16:07;101614.94;;;27.34;42.27
61554;BME280;47425;51.976;5.326;2023-06-22T09:18:34;101616.03;;;27.31;41.97
61554;BME280;47425;51.976;5.326;2023-06-22T09:21:04;101618.97;;;27.28;41.59
61554;BME280;47425;51.976;5.326;2023-06-22T09:23:30;101621.41;;;27.31;41.35
61554;BME280;47425;51.976;5.326;2023-06-22T09:25:57;101618.38;;;27.24;41.24
61554;BME280;47425;51.976;5.326;2023-06-22T09:28:26;101618.97;;;26.94;41.15
61554;BME280;47425;51.976;5.326;2023-06-22T09:30:53;101616.38;;;26.92;41.35
61554;BME280;47425;51.976;5.326;2023-06-22T09:33:26;101611.28;;;27.01;42.20
61554;BME280;47425;51.976;5.326;2023-06-22T09:35:53;101611.66;;;27.19;41.74
61554;BME280;47425;51.976;5.326;2023-06-22T09:38:23;101613.75;;;27.38;41.41
61554;BME280;47425;51.976;5.326;2023-06-22T09:40:49;101612.41;;;27.55;40.93
61554;BME280;47425;51.976;5.326;2023-06-22T09:43:16;101608.09;;;27.63;41.06
61554;BME280;47425;51.976;5.326;2023-06-22T09:45:43;101595.75;;;27.72;40.66
61554;BME280;47425;51.976;5.326;2023-06-22T09:48:11;101596.38;;;27.76;40.84
61554;BME280;47425;51.976;5.326;2023-06-22T09:50:38;101588.56;;;27.61;39.95
61554;BME280;47425;51.976;5.326;2023-06-22T09:53:05;101592.84;;;27.64;40.58
61554;BME280;47425;51.976;5.326;2023-06-22T09:55:33;101588.16;;;27.77;40.69
61554;BME280;47425;51.976;5.326;2023-06-22T09:58:04;101587.50;;;27.85;40.00
61554;BME280;47425;51.976;5.326;2023-06-22T10:00:31;101587.63;;;27.84;39.61
61554;BME280;47425;51.976;5.326;2023-06-22T10:02:58;101589.47;;;27.83;39.48
61554;BME280;47425;51.976;5.326;2023-06-22T10:05:26;101589.16;;;27.65;39.98
61554;BME280;47425;51.976;5.326;2023-06-22T10:07:53;101587.81;;;27.71;40.07
61554;BME280;47425;51.976;5.326;2023-06-22T10:10:21;101586.94;;;27.70;39.19
61554;BME280;47425;51.976;5.326;2023-06-22T10:13:06;101588.81;;;27.47;40.17
61554;BME280;47425;51.976;5.326;2023-06-22T10:15:35;101592.09;;;27.39;39.82
61554;BME280;47425;51.976;5.326;2023-06-22T10:18:05;101589.88;;;27.22;39.15
61554;BME280;47425;51.976;5.326;2023-06-22T10:20:32;101584.25;;;27.13;39.51
61554;BME280;47425;51.976;5.326;2023-06-22T10:22:58;101596.50;;;27.06;40.70
61554;BME280;47425;51.976;5.326;2023-06-22T10:25:28;101596.72;;;27.26;40.96
61554;BME280;47425;51.976;5.326;2023-06-22T10:27:57;101598.09;;;27.32;40.61
61554;BME280;47425;51.976;5.326;2023-06-22T10:30:24;101596.78;;;27.37;40.10
61554;BME280;47425;51.976;5.326;2023-06-22T10:32:51;101593.94;;;27.27;39.91
61554;BME280;47425;51.976;5.326;2023-06-22T10:35:21;101593.44;;;27.22;40.07
61554;BME280;47425;51.976;5.326;2023-06-22T10:37:48;101596.50;;;27.29;40.85
61554;BME280;47425;51.976;5.326;2023-06-22T10:40:16;101593.56;;;27.43;39.58
61554;BME280;47425;51.976;5.326;2023-06-22T10:42:45;101594.19;;;27.36;39.55
61554;BME280;47425;51.976;5.326;2023-06-22T10:45:13;101593.66;;;27.19;39.72
61554;BME280;47425;51.976;5.326;2023-06-22T10:47:40;101594.25;;;27.00;39.40
61554;BME280;47425;51.976;5.326;2023-06-22T10:50:08;101594.13;;;26.90;39.60
61554;BME280;47425;51.976;5.326;2023-06-22T10:52:36;101593.13;;;26.80;39.94
61554;BME280;47425;51.976;5.326;2023-06-22T10:55:03;101582.75;;;26.75;40.88
61554;BME280;47425;51.976;5.326;2023-06-22T10:57:30;101583.97;;;26.83;40.39
61554;BME280;47425;51.976;5.326;2023-06-22T10:59:57;101593.31;;;27.01;40.34
61554;BME280;47425;51.976;5.326;2023-06-22T11:02:25;101579.59;;;26.93;40.16
61554;BME280;47425;51.976;5.326;2023-06-22T11:04:53;101585.00;;;26.93;40.30
61554;BME280;47425;51.976;5.326;2023-06-22T11:07:20;101581.31;;;26.94;40.38
61554;BME280;47425;51.976;5.326;2023-06-22T11:10:07;101571.78;;;27.01;40.56
61554;BME280;47425;51.976;5.326;2023-06-22T11:12:34;101577.53;;;27.19;40.50
61554;BME280;47425;51.976;5.326;2023-06-22T11:15:01;101576.31;;;27.23;41.13
61554;BME280;47425;51.976;5.326;2023-06-22T11:17:29;101577.88;;;27.03;41.24
61554;BME280;47425;51.976;5.326;2023-06-22T11:19:57;101569.09;;;27.01;40.67
61554;BME280;47425;51.976;5.326;2023-06-22T11:22:25;101571.31;;;27.07;40.56
61554;BME280;47425;51.976;5.326;2023-06-22T11:24:52;101567.97;;;26.81;41.39
61554;BME280;47425;51.976;5.326;2023-06-22T11:27:20;101573.22;;;26.71;41.41
61554;BME280;47425;51.976;5.326;2023-06-22T11:29:48;101566.00;;;26.72;41.28
61554;BME280;47425;51.976;5.326;2023-06-22T11:32:15;101568.09;;;26.79;40.79
61554;BME280;47425;51.976;5.326;2023-06-22T11:34:43;101561.38;;;26.74;41.35
61554;BME280;47425;51.976;5.326;2023-06-22T11:37:11;101567.47;;;26.76;41.41
61554;BME280;47425;51.976;5.326;2023-06-22T11:39:40;101564.19;;;26.84;40.89
61554;BME280;47425;51.976;5.326;2023-06-22T11:42:07;101563.69;;;26.90;41.28
61554;BME280;47425;51.976;5.326;2023-06-22T11:44:34;101560.91;;;26.91;40.89
61554;BME280;47425;51.976;5.326;2023-06-22T11:47:03;101556.63;;;26.89;41.32
61554;BME280;47425;51.976;5.326;2023-06-22T11:49:33;101556.38;;;26.92;41.02
61554;BME280;47425;51.976;5.326;2023-06-22T11:52:02;101553.31;;;26.96;41.14
61554;BME280;47425;51.976;5.326;2023-06-22T11:54:28;101555.78;;;27.11;41.02
61554;BME280;47425;51.976;5.326;2023-06-22T11:56:57;101567.50;;;27.10;41.47
61554;BME280;47425;51.976;5.326;2023-06-22T11:59:23;101560.06;;;27.13;41.61
61554;BME280;47425;51.976;5.326;2023-06-22T12:01:50;101553.84;;;27.13;40.88
61554;BME280;47425;51.976;5.326;2023-06-22T12:04:18;101552.00;;;27.13;41.16
61554;BME280;47425;51.976;5.326;2023-06-22T12:06:45;101541.72;;;27.19;41.09
61554;BME280;47425;51.976;5.326;2023-06-22T12:09:13;101542.34;;;27.22;42.13
61554;BME280;47425;51.976;5.326;2023-06-22T12:11:40;101544.16;;;26.99;43.04
61554;BME280;47425;51.976;5.326;2023-06-22T12:14:08;101547.09;;;26.96;43.66
61554;BME280;47425;51.976;5.326;2023-06-22T12:16:36;101539.28;;;26.93;43.36
61554;BME280;47425;51.976;5.326;2023-06-22T12:19:03;101534.50;;;26.74;44.58
61554;BME280;47425;51.976;5.326;2023-06-22T12:21:29;101533.06;;;26.45;44.90
61554;BME280;47425;51.976;5.326;2023-06-22T12:24:01;101530.78;;;26.17;44.44
61554;BME280;47425;51.976;5.326;2023-06-22T12:26:31;101530.22;;;26.00;45.38
61554;BME280;47425;51.976;5.326;2023-06-22T12:28:57;101530.78;;;25.92;45.54
61554;BME280;47425;51.976;5.326;2023-06-22T12:31:28;101529.69;;;25.95;45.90
61554;BME280;47425;51.976;5.326;2023-06-22T12:33:55;101525.47;;;26.04;44.50
61554;BME280;47425;51.976;5.326;2023-06-22T12:36:21;101526.78;;;25.98;45.97
61554;BME280;47425;51.976;5.326;2023-06-22T12:38:49;101521.13;;;25.90;45.18
61554;BME280;47425;51.976;5.326;2023-06-22T12:41:18;101532.03;;;25.75;46.21
61554;BME280;47425;51.976;5.326;2023-06-22T12:43:46;101527.44;;;25.65;46.37
61554;BME280;47425;51.976;5.326;2023-06-22T12:46:14;101525.84;;;25.62;45.91
61554;BME280;47425;51.976;5.326;2023-06-22T12:48:41;101534.97;;;25.59;46.89
61554;BME280;47425;51.976;5.326;2023-06-22T12:51:08;101524.25;;;25.59;46.98
61554;BME280;47425;51.976;5.326;2023-06-22T12:53:35;101525.31;;;25.57;46.02
61554;BME280;47425;51.976;5.326;2023-06-22T12:56:01;101516.00;;;25.62;48.07
61554;BME280;47425;51.976;5.326;2023-06-22T12:58:29;101513.47;;;25.72;46.02
61554;BME280;47425;51.976;5.326;2023-06-22T13:00:57;101503.38;;;25.76;47.08